sensor_id;sensor_type;location;lat;lon;timestamp;P1;durP1;ratioP1;P2;durP2;ratioP2
50569;SDS011;36525;49.398;7.614;2023-01-29T00:01:57;4.90;;;2.70;;
50569;SDS011;36525;49.398;7.614;2023-01-29T00:04:24;5.65;;;2.65;;
50569;SDS011;36525;49.398;7.614;2023-01-29T00:06:51;5.25;;;2.25;;
50569;SDS011;36525;49.398;7.614;2023-01-29T00:09:19;7.22;;;2.85;;
50569;SDS011;36525;49.398;7.614;2023-01-29T00:11:46;7.07;;;2.30;;
50569;SDS011;36525;49.398;7.614;2023-01-29T00:14:13;5.15;;;2.47;;
50569;SDS011;36525;49.398;7.614;2023-01-29T00:16:40;4.95;;;2.15;;
50569;SDS011;36525;49.398;7.614;2023-01-29T00:19:07;4.05;;;2.40;;
50569;SDS011;36525;49.398;7.614;2023-01-29T00:21:34;7.55;;;2.92;;
50569;SDS011;36525;49.398;7.614;2023-01-29T00:24:01;4.32;;;2.10;;
50569;SDS011;36525;49.398;7.614;2023-01-29T00:26:29;3.72;;;2.20;;
50569;SDS011;36525;49.398;7.614;2023-01-29T00:28:56;3.05;;;2.05;;
50569;SDS011;36525;49.398;7.614;2023-01-29T00:31:25;4.15;;;2.50;;
50569;SDS011;36525;49.398;7.614;2023-01-29T00:33:53;4.80;;;1.95;;
50569;SDS011;36525;49.398;7.614;2023-01-29T00:36:20;3.97;;;1.88;;
50569;SDS011;36525;49.398;7.614;2023-01-29T00:38:53;6.22;;;2.45;;
50569;SDS011;36525;49.398;7.614;2023-01-29T00:41:26;6.00;;;2.67;;
50569;SDS011;36525;49.398;7.614;2023-01-29T00:44:16;4.97;;;2.40;;
50569;SDS011;36525;49.398;7.614;2023-01-29T00:47:03;5.55;;;2.30;;
50569;SDS011;36525;49.398;7.614;2023-01-29T00:49:54;4.85;;;2.53;;
50569;SDS011;36525;49.398;7.614;2023-01-29T00:52:21;4.57;;;1.75;;
50569;SDS011;36525;49.398;7.614;2023-01-29T00:54:58;6.57;;;2.72;;
50569;SDS011;36525;49.398;7.614;2023-01-29T00:57:26;4.45;;;2.92;;
50569;SDS011;36525;49.398;7.614;2023-01-29T00:59:55;7.80;;;3.45;;
50569;SDS011;36525;49.398;7.614;2023-01-29T01:02:23;5.97;;;3.17;;
50569;SDS011;36525;49.398;7.614;2023-01-29T01:05:09;3.95;;;2.83;;
50569;SDS011;36525;49.398;7.614;2023-01-29T01:07:47;6.10;;;3.47;;
50569;SDS011;36525;49.398;7.614;2023-01-29T01:10:24;4.60;;;2.42;;
50569;SDS011;36525;49.398;7.614;2023-01-29T01:12:59;3.83;;;2.30;;
50569;SDS011;36525;49.398;7.614;2023-01-29T01:15:29;5.18;;;2.53;;
50569;SDS011;36525;49.398;7.614;2023-01-29T01:18:00;4.07;;;2.58;;
50569;SDS011;36525;49.398;7.614;2023-01-29T01:20:29;4.72;;;2.65;;
50569;SDS011;36525;49.398;7.614;2023-01-29T01:22:59;6.05;;;2.40;;
50569;SDS011;36525;49.398;7.614;2023-01-29T01:25:26;6.15;;;2.28;;
50569;SDS011;36525;49.398;7.614;2023-01-29T01:27:54;5.38;;;2.25;;
50569;SDS011;36525;49.398;7.614;2023-01-29T01:30:23;4.65;;;2.72;;
50569;SDS011;36525;49.398;7.614;2023-01-29T01:32:51;3.70;;;2.08;;
50569;SDS011;36525;49.398;7.614;2023-01-29T01:35:19;5.03;;;2.38;;
50569;SDS011;36525;49.398;7.614;2023-01-29T01:37:46;5.30;;;2.72;;
50569;SDS011;36525;49.398;7.614;2023-01-29T01:40:14;11.30;;;3.05;;
50569;SDS011;36525;49.398;7.614;2023-01-29T01:42:48;4.63;;;2.70;;
50569;SDS011;36525;49.398;7.614;2023-01-29T01:45:33;4.40;;;2.65;;
50569;SDS011;36525;49.398;7.614;2023-01-29T01:48:06;8.50;;;2.90;;
50569;SDS011;36525;49.398;7.614;2023-01-29T01:50:57;6.45;;;2.72;;
50569;SDS011;36525;49.398;7.614;2023-01-29T01:53:30;4.97;;;2.83;;
50569;SDS011;36525;49.398;7.614;2023-01-29T01:56:05;6.05;;;2.97;;
50569;SDS011;36525;49.398;7.614;2023-01-29T01:58:40;6.18;;;3.20;;
50569;SDS011;36525;49.398;7.614;2023-01-29T02:01:16;3.80;;;2.38;;
50569;SDS011;36525;49.398;7.614;2023-01-29T02:03:45;4.82;;;2.33;;
50569;SDS011;36525;49.398;7.614;2023-01-29T02:06:36;5.25;;;2.50;;
50569;SDS011;36525;49.398;7.614;2023-01-29T02:09:26;4.82;;;2.35;;
50569;SDS011;36525;49.398;7.614;2023-01-29T02:12:04;4.03;;;2.63;;
50569;SDS011;36525;49.398;7.614;2023-01-29T02:14:42;4.20;;;2.40;;
50569;SDS011;36525;49.398;7.614;2023-01-29T02:17:11;6.82;;;3.80;;
50569;SDS011;36525;49.398;7.614;2023-01-29T02:20:04;3.88;;;2.47;;
50569;SDS011;36525;49.398;7.614;2023-01-29T02:34:21;4.82;;;2.17;;
50569;SDS011;36525;49.398;7.614;2023-01-29T02:37:17;5.65;;;2.58;;
50569;SDS011;36525;49.398;7.614;2023-01-29T02:40:07;6.50;;;2.42;;
50569;SDS011;36525;49.398;7.614;2023-01-29T02:43:26;7.18;;;2.85;;
50569;SDS011;36525;49.398;7.614;2023-01-29T02:51:30;4.30;;;2.47;;
50569;SDS011;36525;49.398;7.614;2023-01-29T02:54:16;5.95;;;3.30;;
50569;SDS011;36525;49.398;7.614;2023-01-29T02:56:53;3.30;;;2.08;;
50569;SDS011;36525;49.398;7.614;2023-01-29T02:59:31;4.20;;;2.10;;
50569;SDS011;36525;49.398;7.614;2023-01-29T03:02:16;6.95;;;2.22;;
50569;SDS011;36525;49.398;7.614;2023-01-29T03:05:01;6.68;;;2.65;;
50569;SDS011;36525;49.398;7.614;2023-01-29T03:07:34;5.32;;;2.63;;
50569;SDS011;36525;49.398;7.614;2023-01-29T03:10:13;6.05;;;3.03;;
50569;SDS011;36525;49.398;7.614;2023-01-29T03:13:37;5.18;;;2.63;;
50569;SDS011;36525;49.398;7.614;2023-01-29T03:16:11;5.65;;;2.58;;
50569;SDS011;36525;49.398;7.614;2023-01-29T03:18:51;5.15;;;2.83;;
50569;SDS011;36525;49.398;7.614;2023-01-29T03:21:31;5.07;;;3.00;;
50569;SDS011;36525;49.398;7.614;2023-01-29T03:25:02;4.80;;;2.63;;
50569;SDS011;36525;49.398;7.614;2023-01-29T03:27:30;4.90;;;2.75;;
50569;SDS011;36525;49.398;7.614;2023-01-29T03:30:41;6.47;;;2.90;;
50569;SDS011;36525;49.398;7.614;2023-01-29T03:33:49;6.63;;;3.55;;
50569;SDS011;36525;49.398;7.614;2023-01-29T03:36:28;5.00;;;2.63;;
50569;SDS011;36525;49.398;7.614;2023-01-29T03:39:10;3.72;;;2.08;;
50569;SDS011;36525;49.398;7.614;2023-01-29T03:41:43;5.40;;;3.08;;
50569;SDS011;36525;49.398;7.614;2023-01-29T03:44:40;8.68;;;2.55;;
50569;SDS011;36525;49.398;7.614;2023-01-29T03:47:47;3.75;;;2.13;;
50569;SDS011;36525;49.398;7.614;2023-01-29T03:50:46;3.33;;;1.88;;
50569;SDS011;36525;49.398;7.614;2023-01-29T03:57:14;7.03;;;2.40;;
50569;SDS011;36525;49.398;7.614;2023-01-29T04:00:01;4.35;;;2.67;;
50569;SDS011;36525;49.398;7.614;2023-01-29T04:02:46;4.70;;;2.95;;
50569;SDS011;36525;49.398;7.614;2023-01-29T04:05:24;5.63;;;3.17;;
50569;SDS011;36525;49.398;7.614;2023-01-29T04:08:04;4.68;;;2.25;;
50569;SDS011;36525;49.398;7.614;2023-01-29T04:10:37;3.72;;;2.42;;
50569;SDS011;36525;49.398;7.614;2023-01-29T04:13:08;6.28;;;4.15;;
50569;SDS011;36525;49.398;7.614;2023-01-29T04:15:40;5.40;;;3.22;;
50569;SDS011;36525;49.398;7.614;2023-01-29T04:18:13;5.57;;;2.97;;
50569;SDS011;36525;49.398;7.614;2023-01-29T04:20:42;5.05;;;2.72;;
50569;SDS011;36525;49.398;7.614;2023-01-29T04:23:19;6.38;;;2.85;;
50569;SDS011;36525;49.398;7.614;2023-01-29T04:29:06;4.85;;;2.33;;
50569;SDS011;36525;49.398;7.614;2023-01-29T04:34:47;6.35;;;2.28;;
50569;SDS011;36525;49.398;7.614;2023-01-29T04:40:20;5.45;;;2.45;;
50569;SDS011;36525;49.398;7.614;2023-01-29T04:43:07;5.70;;;2.42;;
50569;SDS011;36525;49.398;7.614;2023-01-29T04:49:01;4.10;;;2.58;;
50569;SDS011;36525;49.398;7.614;2023-01-29T04:51:48;4.03;;;2.22;;
50569;SDS011;36525;49.398;7.614;2023-01-29T05:00:21;3.33;;;1.85;;
50569;SDS011;36525;49.398;7.614;2023-01-29T05:02:58;4.20;;;2.25;;
50569;SDS011;36525;49.398;7.614;2023-01-29T05:05:27;4.10;;;2.53;;
50569;SDS011;36525;49.398;7.614;2023-01-29T05:07:57;4.50;;;2.92;;
50569;SDS011;36525;49.398;7.614;2023-01-29T05:10:26;4.63;;;2.70;;
50569;SDS011;36525;49.398;7.614;2023-01-29T05:12:58;4.78;;;2.60;;
50569;SDS011;36525;49.398;7.614;2023-01-29T05:15:30;5.13;;;2.63;;
50569;SDS011;36525;49.398;7.614;2023-01-29T05:18:11;4.20;;;1.88;;
50569;SDS011;36525;49.398;7.614;2023-01-29T05:20:39;4.32;;;2.63;;
50569;SDS011;36525;49.398;7.614;2023-01-29T05:23:09;5.25;;;2.00;;
50569;SDS011;36525;49.398;7.614;2023-01-29T05:25:43;7.28;;;2.72;;
50569;SDS011;36525;49.398;7.614;2023-01-29T05:28:11;4.53;;;2.50;;
50569;SDS011;36525;49.398;7.614;2023-01-29T05:30:43;5.28;;;2.72;;
50569;SDS011;36525;49.398;7.614;2023-01-29T05:35:46;5.88;;;2.30;;
50569;SDS011;36525;49.398;7.614;2023-01-29T05:38:14;3.85;;;2.30;;
50569;SDS011;36525;49.398;7.614;2023-01-29T05:40:42;8.05;;;3.17;;
50569;SDS011;36525;49.398;7.614;2023-01-29T05:43:16;6.93;;;3.20;;
50569;SDS011;36525;49.398;7.614;2023-01-29T05:45:56;6.65;;;3.17;;
50569;SDS011;36525;49.398;7.614;2023-01-29T05:48:25;5.13;;;3.05;;
50569;SDS011;36525;49.398;7.614;2023-01-29T05:51:00;6.85;;;2.95;;
50569;SDS011;36525;49.398;7.614;2023-01-29T05:53:29;3.50;;;2.28;;
50569;SDS011;36525;49.398;7.614;2023-01-29T05:56:01;3.85;;;2.20;;
50569;SDS011;36525;49.398;7.614;2023-01-29T05:58:30;5.63;;;2.47;;
50569;SDS011;36525;49.398;7.614;2023-01-29T06:01:06;4.28;;;2.50;;
50569;SDS011;36525;49.398;7.614;2023-01-29T06:03:39;7.40;;;2.92;;
50569;SDS011;36525;49.398;7.614;2023-01-29T06:06:06;8.00;;;3.20;;
50569;SDS011;36525;49.398;7.614;2023-01-29T06:08:34;7.55;;;3.13;;
50569;SDS011;36525;49.398;7.614;2023-01-29T06:11:02;5.90;;;3.42;;
50569;SDS011;36525;49.398;7.614;2023-01-29T06:13:29;6.18;;;3.20;;
50569;SDS011;36525;49.398;7.614;2023-01-29T06:15:56;4.85;;;2.85;;
50569;SDS011;36525;49.398;7.614;2023-01-29T06:18:23;8.15;;;2.97;;
50569;SDS011;36525;49.398;7.614;2023-01-29T06:20:50;6.50;;;2.63;;
50569;SDS011;36525;49.398;7.614;2023-01-29T06:23:17;5.97;;;2.67;;
50569;SDS011;36525;49.398;7.614;2023-01-29T06:25:44;4.45;;;2.60;;
50569;SDS011;36525;49.398;7.614;2023-01-29T06:28:11;3.78;;;1.80;;
50569;SDS011;36525;49.398;7.614;2023-01-29T06:30:38;4.78;;;3.15;;
50569;SDS011;36525;49.398;7.614;2023-01-29T06:33:05;6.07;;;3.33;;
50569;SDS011;36525;49.398;7.614;2023-01-29T06:35:32;4.75;;;2.58;;
50569;SDS011;36525;49.398;7.614;2023-01-29T06:38:00;4.78;;;2.72;;
50569;SDS011;36525;49.398;7.614;2023-01-29T06:40:27;4.97;;;2.97;;
50569;SDS011;36525;49.398;7.614;2023-01-29T06:42:54;6.20;;;2.85;;
50569;SDS011;36525;49.398;7.614;2023-01-29T06:45:21;9.70;;;3.30;;
50569;SDS011;36525;49.398;7.614;2023-01-29T06:47:48;5.70;;;3.47;;
50569;SDS011;36525;49.398;7.614;2023-01-29T06:50:15;8.30;;;3.47;;
50569;SDS011;36525;49.398;7.614;2023-01-29T06:52:42;5.20;;;2.90;;
50569;SDS011;36525;49.398;7.614;2023-01-29T06:55:09;3.95;;;2.42;;
50569;SDS011;36525;49.398;7.614;2023-01-29T06:57:37;4.90;;;2.85;;
50569;SDS011;36525;49.398;7.614;2023-01-29T07:00:04;4.90;;;2.50;;
50569;SDS011;36525;49.398;7.614;2023-01-29T07:02:32;4.60;;;2.97;;
50569;SDS011;36525;49.398;7.614;2023-01-29T07:04:59;7.68;;;2.72;;
50569;SDS011;36525;49.398;7.614;2023-01-29T07:07:26;6.50;;;3.17;;
50569;SDS011;36525;49.398;7.614;2023-01-29T07:09:53;10.70;;;3.90;;
50569;SDS011;36525;49.398;7.614;2023-01-29T07:12:19;6.88;;;3.17;;
50569;SDS011;36525;49.398;7.614;2023-01-29T07:14:47;6.47;;;3.63;;
50569;SDS011;36525;49.398;7.614;2023-01-29T07:17:14;6.03;;;3.90;;
50569;SDS011;36525;49.398;7.614;2023-01-29T07:19:41;6.05;;;3.95;;
50569;SDS011;36525;49.398;7.614;2023-01-29T07:22:08;7.93;;;3.13;;
50569;SDS011;36525;49.398;7.614;2023-01-29T07:24:37;6.72;;;3.25;;
50569;SDS011;36525;49.398;7.614;2023-01-29T07:27:04;8.23;;;3.97;;
50569;SDS011;36525;49.398;7.614;2023-01-29T07:29:31;7.97;;;3.67;;
50569;SDS011;36525;49.398;7.614;2023-01-29T07:31:58;6.10;;;3.22;;
50569;SDS011;36525;49.398;7.614;2023-01-29T07:34:25;6.65;;;3.38;;
50569;SDS011;36525;49.398;7.614;2023-01-29T07:36:52;6.85;;;3.83;;
50569;SDS011;36525;49.398;7.614;2023-01-29T07:39:20;6.40;;;3.38;;
50569;SDS011;36525;49.398;7.614;2023-01-29T07:41:47;8.93;;;3.92;;
50569;SDS011;36525;49.398;7.614;2023-01-29T07:44:14;5.07;;;3.13;;
50569;SDS011;36525;49.398;7.614;2023-01-29T07:46:41;12.05;;;3.97;;
50569;SDS011;36525;49.398;7.614;2023-01-29T07:49:08;7.50;;;3.53;;
50569;SDS011;36525;49.398;7.614;2023-01-29T07:51:35;9.77;;;3.22;;
50569;SDS011;36525;49.398;7.614;2023-01-29T07:54:02;6.70;;;3.75;;
50569;SDS011;36525;49.398;7.614;2023-01-29T07:56:29;7.80;;;3.90;;
50569;SDS011;36525;49.398;7.614;2023-01-29T07:58:56;5.43;;;3.00;;
50569;SDS011;36525;49.398;7.614;2023-01-29T08:01:24;6.50;;;3.40;;
50569;SDS011;36525;49.398;7.614;2023-01-29T08:03:51;7.90;;;3.10;;
50569;SDS011;36525;49.398;7.614;2023-01-29T08:06:18;6.20;;;3.75;;
50569;SDS011;36525;49.398;7.614;2023-01-29T08:08:45;7.15;;;3.90;;
50569;SDS011;36525;49.398;7.614;2023-01-29T08:11:12;8.27;;;3.30;;
50569;SDS011;36525;49.398;7.614;2023-01-29T08:13:39;6.28;;;2.97;;
50569;SDS011;36525;49.398;7.614;2023-01-29T08:16:06;5.05;;;2.70;;
50569;SDS011;36525;49.398;7.614;2023-01-29T08:18:35;8.60;;;2.78;;
50569;SDS011;36525;49.398;7.614;2023-01-29T08:21:03;5.82;;;3.33;;
50569;SDS011;36525;49.398;7.614;2023-01-29T08:23:30;8.38;;;4.20;;
50569;SDS011;36525;49.398;7.614;2023-01-29T08:25:57;8.90;;;4.68;;
50569;SDS011;36525;49.398;7.614;2023-01-29T08:28:24;35.47;;;14.85;;
50569;SDS011;36525;49.398;7.614;2023-01-29T08:30:51;51.83;;;23.45;;
50569;SDS011;36525;49.398;7.614;2023-01-29T08:33:18;34.83;;;18.25;;
50569;SDS011;36525;49.398;7.614;2023-01-29T08:36:02;27.77;;;13.23;;
50569;SDS011;36525;49.398;7.614;2023-01-29T08:38:29;21.50;;;10.25;;
50569;SDS011;36525;49.398;7.614;2023-01-29T08:40:56;20.70;;;9.38;;
50569;SDS011;36525;49.398;7.614;2023-01-29T08:43:23;22.65;;;10.88;;
50569;SDS011;36525;49.398;7.614;2023-01-29T08:45:50;17.45;;;9.02;;
50569;SDS011;36525;49.398;7.614;2023-01-29T08:48:17;15.90;;;9.32;;
50569;SDS011;36525;49.398;7.614;2023-01-29T08:50:47;14.57;;;8.80;;
50569;SDS011;36525;49.398;7.614;2023-01-29T08:53:14;14.20;;;7.25;;
50569;SDS011;36525;49.398;7.614;2023-01-29T08:55:42;10.38;;;5.88;;
50569;SDS011;36525;49.398;7.614;2023-01-29T08:58:11;11.15;;;6.18;;
50569;SDS011;36525;49.398;7.614;2023-01-29T09:00:38;9.50;;;4.43;;
50569;SDS011;36525;49.398;7.614;2023-01-29T09:03:05;7.85;;;4.05;;
50569;SDS011;36525;49.398;7.614;2023-01-29T09:05:33;8.93;;;4.60;;
50569;SDS011;36525;49.398;7.614;2023-01-29T09:08:01;9.38;;;5.50;;
50569;SDS011;36525;49.398;7.614;2023-01-29T09:10:28;11.40;;;4.80;;
50569;SDS011;36525;49.398;7.614;2023-01-29T09:12:55;8.60;;;4.88;;
50569;SDS011;36525;49.398;7.614;2023-01-29T09:15:22;11.23;;;5.18;;
50569;SDS011;36525;49.398;7.614;2023-01-29T09:17:50;7.47;;;3.88;;
50569;SDS011;36525;49.398;7.614;2023-01-29T09:20:17;9.57;;;4.22;;
50569;SDS011;36525;49.398;7.614;2023-01-29T09:22:45;9.95;;;4.18;;
50569;SDS011;36525;49.398;7.614;2023-01-29T09:25:13;7.55;;;4.13;;
50569;SDS011;36525;49.398;7.614;2023-01-29T09:27:40;9.73;;;4.53;;
50569;SDS011;36525;49.398;7.614;2023-01-29T09:30:08;7.93;;;3.97;;
50569;SDS011;36525;49.398;7.614;2023-01-29T09:32:36;8.00;;;3.90;;
50569;SDS011;36525;49.398;7.614;2023-01-29T09:35:19;5.18;;;2.88;;
50569;SDS011;36525;49.398;7.614;2023-01-29T09:37:47;6.32;;;3.30;;
50569;SDS011;36525;49.398;7.614;2023-01-29T09:40:23;7.65;;;3.30;;
50569;SDS011;36525;49.398;7.614;2023-01-29T09:42:56;7.03;;;3.88;;
50569;SDS011;36525;49.398;7.614;2023-01-29T09:46:14;10.50;;;5.63;;
50569;SDS011;36525;49.398;7.614;2023-01-29T09:49:11;11.02;;;4.82;;
50569;SDS011;36525;49.398;7.614;2023-01-29T09:51:42;6.43;;;4.20;;
50569;SDS011;36525;49.398;7.614;2023-01-29T09:54:17;7.65;;;4.55;;
50569;SDS011;36525;49.398;7.614;2023-01-29T09:56:54;9.82;;;4.20;;
50569;SDS011;36525;49.398;7.614;2023-01-29T09:59:23;8.05;;;4.43;;
50569;SDS011;36525;49.398;7.614;2023-01-29T10:13:24;11.40;;;4.13;;
50569;SDS011;36525;49.398;7.614;2023-01-29T10:27:22;7.57;;;4.30;;
50569;SDS011;36525;49.398;7.614;2023-01-29T10:29:59;6.05;;;3.63;;
50569;SDS011;36525;49.398;7.614;2023-01-29T10:32:32;6.20;;;4.00;;
50569;SDS011;36525;49.398;7.614;2023-01-29T10:37:47;6.60;;;3.78;;
50569;SDS011;36525;49.398;7.614;2023-01-29T10:40:31;6.63;;;3.70;;
50569;SDS011;36525;49.398;7.614;2023-01-29T10:43:28;6.80;;;3.63;;
50569;SDS011;36525;49.398;7.614;2023-01-29T10:52:08;6.78;;;4.40;;
50569;SDS011;36525;49.398;7.614;2023-01-29T11:00:43;8.88;;;4.20;;
50569;SDS011;36525;49.398;7.614;2023-01-29T11:03:15;9.73;;;4.68;;
50569;SDS011;36525;49.398;7.614;2023-01-29T11:08:30;5.38;;;3.60;;
50569;SDS011;36525;49.398;7.614;2023-01-29T11:11:40;10.57;;;5.57;;
50569;SDS011;36525;49.398;7.614;2023-01-29T11:14:25;6.72;;;4.57;;
50569;SDS011;36525;49.398;7.614;2023-01-29T11:16:58;7.22;;;4.95;;
50569;SDS011;36525;49.398;7.614;2023-01-29T11:19:42;8.45;;;5.22;;
50569;SDS011;36525;49.398;7.614;2023-01-29T11:22:15;9.15;;;5.00;;
50569;SDS011;36525;49.398;7.614;2023-01-29T11:25:05;10.93;;;5.13;;
50569;SDS011;36525;49.398;7.614;2023-01-29T11:27:44;9.32;;;5.22;;
50569;SDS011;36525;49.398;7.614;2023-01-29T11:30:29;6.30;;;3.72;;
50569;SDS011;36525;49.398;7.614;2023-01-29T11:33:11;7.78;;;4.68;;
50569;SDS011;36525;49.398;7.614;2023-01-29T11:35:48;9.07;;;4.70;;
50569;SDS011;36525;49.398;7.614;2023-01-29T11:38:21;8.15;;;4.78;;
50569;SDS011;36525;49.398;7.614;2023-01-29T11:40:51;10.07;;;4.60;;
50569;SDS011;36525;49.398;7.614;2023-01-29T11:45:47;8.98;;;5.72;;
50569;SDS011;36525;49.398;7.614;2023-01-29T11:48:20;10.82;;;5.50;;
50569;SDS011;36525;49.398;7.614;2023-01-29T11:50:55;6.77;;;4.33;;
50569;SDS011;36525;49.398;7.614;2023-01-29T11:53:36;9.27;;;5.25;;
50569;SDS011;36525;49.398;7.614;2023-01-29T11:56:15;7.85;;;5.45;;
50569;SDS011;36525;49.398;7.614;2023-01-29T11:59:41;11.63;;;5.45;;
50569;SDS011;36525;49.398;7.614;2023-01-29T12:04:52;11.05;;;5.72;;
50569;SDS011;36525;49.398;7.614;2023-01-29T12:07:23;8.30;;;5.47;;
50569;SDS011;36525;49.398;7.614;2023-01-29T12:09:51;9.90;;;5.95;;
50569;SDS011;36525;49.398;7.614;2023-01-29T12:15:15;9.07;;;5.65;;
50569;SDS011;36525;49.398;7.614;2023-01-29T12:17:52;9.90;;;6.00;;
50569;SDS011;36525;49.398;7.614;2023-01-29T12:20:46;10.95;;;5.68;;
50569;SDS011;36525;49.398;7.614;2023-01-29T12:26:05;8.02;;;5.55;;
50569;SDS011;36525;49.398;7.614;2023-01-29T12:31:50;7.75;;;4.88;;
50569;SDS011;36525;49.398;7.614;2023-01-29T12:37:34;8.85;;;4.70;;
50569;SDS011;36525;49.398;7.614;2023-01-29T12:40:38;9.35;;;6.32;;
50569;SDS011;36525;49.398;7.614;2023-01-29T12:43:09;10.30;;;5.60;;
50569;SDS011;36525;49.398;7.614;2023-01-29T12:45:44;11.23;;;5.38;;
50569;SDS011;36525;49.398;7.614;2023-01-29T12:48:22;8.77;;;6.10;;
50569;SDS011;36525;49.398;7.614;2023-01-29T12:50:54;14.07;;;6.90;;
50569;SDS011;36525;49.398;7.614;2023-01-29T12:53:34;10.38;;;6.47;;
50569;SDS011;36525;49.398;7.614;2023-01-29T12:56:45;9.50;;;5.30;;
50569;SDS011;36525;49.398;7.614;2023-01-29T12:59:22;8.68;;;5.32;;
50569;SDS011;36525;49.398;7.614;2023-01-29T13:05:01;10.25;;;5.97;;
50569;SDS011;36525;49.398;7.614;2023-01-29T13:07:38;10.18;;;5.80;;
50569;SDS011;36525;49.398;7.614;2023-01-29T13:10:13;10.73;;;5.22;;
50569;SDS011;36525;49.398;7.614;2023-01-29T13:15:53;7.82;;;4.80;;
50569;SDS011;36525;49.398;7.614;2023-01-29T13:20:58;7.78;;;5.00;;
50569;SDS011;36525;49.398;7.614;2023-01-29T13:23:47;9.57;;;5.97;;
50569;SDS011;36525;49.398;7.614;2023-01-29T13:26:19;9.38;;;6.65;;
50569;SDS011;36525;49.398;7.614;2023-01-29T13:28:47;9.18;;;6.50;;
50569;SDS011;36525;49.398;7.614;2023-01-29T13:34:18;8.82;;;5.65;;
50569;SDS011;36525;49.398;7.614;2023-01-29T13:36:47;11.55;;;6.78;;
50569;SDS011;36525;49.398;7.614;2023-01-29T13:39:19;12.00;;;7.55;;
50569;SDS011;36525;49.398;7.614;2023-01-29T13:41:51;8.80;;;5.80;;
50569;SDS011;36525;49.398;7.614;2023-01-29T13:44:21;11.43;;;6.38;;
50569;SDS011;36525;49.398;7.614;2023-01-29T13:46:53;9.77;;;5.80;;
50569;SDS011;36525;49.398;7.614;2023-01-29T13:49:34;11.23;;;6.80;;
50569;SDS011;36525;49.398;7.614;2023-01-29T13:55:18;9.02;;;6.68;;
50569;SDS011;36525;49.398;7.614;2023-01-29T13:57:57;9.98;;;5.88;;
50569;SDS011;36525;49.398;7.614;2023-01-29T14:08:58;8.80;;;5.68;;
50569;SDS011;36525;49.398;7.614;2023-01-29T14:13:41;6.72;;;4.88;;
50569;SDS011;36525;49.398;7.614;2023-01-29T14:18:45;10.38;;;5.40;;
50569;SDS011;36525;49.398;7.614;2023-01-29T14:21:25;10.32;;;4.95;;
50569;SDS011;36525;49.398;7.614;2023-01-29T14:24:18;8.77;;;5.88;;
50569;SDS011;36525;49.398;7.614;2023-01-29T14:26:47;9.40;;;4.88;;
50569;SDS011;36525;49.398;7.614;2023-01-29T14:29:23;9.45;;;6.05;;
50569;SDS011;36525;49.398;7.614;2023-01-29T14:32:17;8.73;;;6.60;;
50569;SDS011;36525;49.398;7.614;2023-01-29T14:34:47;8.57;;;5.13;;
50569;SDS011;36525;49.398;7.614;2023-01-29T14:39:58;8.43;;;5.70;;
50569;SDS011;36525;49.398;7.614;2023-01-29T14:43:14;8.60;;;4.97;;
50569;SDS011;36525;49.398;7.614;2023-01-29T14:45:36;7.95;;;5.75;;
50569;SDS011;36525;49.398;7.614;2023-01-29T14:55:42;6.85;;;4.68;;
50569;SDS011;36525;49.398;7.614;2023-01-29T14:58:36;7.70;;;5.57;;
50569;SDS011;36525;49.398;7.614;2023-01-29T15:01:14;8.25;;;5.35;;
50569;SDS011;36525;49.398;7.614;2023-01-29T15:04:01;6.72;;;5.10;;
50569;SDS011;36525;49.398;7.614;2023-01-29T15:09:15;12.82;;;7.90;;
50569;SDS011;36525;49.398;7.614;2023-01-29T15:12:05;8.15;;;5.22;;
50569;SDS011;36525;49.398;7.614;2023-01-29T15:14:46;8.30;;;5.82;;
50569;SDS011;36525;49.398;7.614;2023-01-29T15:17:51;10.38;;;6.13;;
50569;SDS011;36525;49.398;7.614;2023-01-29T15:20:32;9.15;;;5.75;;
50569;SDS011;36525;49.398;7.614;2023-01-29T15:23:03;8.15;;;5.45;;
50569;SDS011;36525;49.398;7.614;2023-01-29T15:25:50;10.98;;;5.80;;
50569;SDS011;36525;49.398;7.614;2023-01-29T15:28:20;7.43;;;5.45;;
50569;SDS011;36525;49.398;7.614;2023-01-29T15:30:51;9.57;;;6.13;;
50569;SDS011;36525;49.398;7.614;2023-01-29T15:33:21;10.48;;;5.97;;
50569;SDS011;36525;49.398;7.614;2023-01-29T15:35:49;8.75;;;5.38;;
50569;SDS011;36525;49.398;7.614;2023-01-29T15:38:35;8.85;;;5.65;;
50569;SDS011;36525;49.398;7.614;2023-01-29T15:41:18;8.43;;;5.87;;
50569;SDS011;36525;49.398;7.614;2023-01-29T15:43:55;9.15;;;6.43;;
50569;SDS011;36525;49.398;7.614;2023-01-29T15:46:33;12.60;;;8.23;;
50569;SDS011;36525;49.398;7.614;2023-01-29T15:49:07;10.40;;;6.75;;
50569;SDS011;36525;49.398;7.614;2023-01-29T15:51:45;10.40;;;6.20;;
50569;SDS011;36525;49.398;7.614;2023-01-29T15:54:14;12.25;;;6.57;;
50569;SDS011;36525;49.398;7.614;2023-01-29T15:56:43;8.63;;;6.00;;
50569;SDS011;36525;49.398;7.614;2023-01-29T15:59:17;10.40;;;5.88;;
50569;SDS011;36525;49.398;7.614;2023-01-29T16:01:55;10.63;;;6.63;;
50569;SDS011;36525;49.398;7.614;2023-01-29T16:04:23;12.73;;;8.30;;
50569;SDS011;36525;49.398;7.614;2023-01-29T16:06:54;11.95;;;7.40;;
50569;SDS011;36525;49.398;7.614;2023-01-29T16:09:24;12.32;;;7.50;;
50569;SDS011;36525;49.398;7.614;2023-01-29T16:11:53;11.85;;;6.88;;
50569;SDS011;36525;49.398;7.614;2023-01-29T16:14:23;11.20;;;7.20;;
50569;SDS011;36525;49.398;7.614;2023-01-29T16:16:52;10.88;;;7.15;;
50569;SDS011;36525;49.398;7.614;2023-01-29T16:19:23;12.45;;;8.40;;
50569;SDS011;36525;49.398;7.614;2023-01-29T16:21:58;12.75;;;7.90;;
50569;SDS011;36525;49.398;7.614;2023-01-29T16:24:28;12.43;;;8.05;;
50569;SDS011;36525;49.398;7.614;2023-01-29T16:26:58;15.85;;;8.02;;
50569;SDS011;36525;49.398;7.614;2023-01-29T16:29:33;14.55;;;8.35;;
50569;SDS011;36525;49.398;7.614;2023-01-29T16:32:01;16.55;;;9.95;;
50569;SDS011;36525;49.398;7.614;2023-01-29T16:34:36;16.77;;;11.20;;
50569;SDS011;36525;49.398;7.614;2023-01-29T16:37:22;16.95;;;10.32;;
50569;SDS011;36525;49.398;7.614;2023-01-29T16:39:58;11.97;;;7.73;;
50569;SDS011;36525;49.398;7.614;2023-01-29T16:42:26;15.98;;;8.50;;
50569;SDS011;36525;49.398;7.614;2023-01-29T16:48:00;11.27;;;7.03;;
50569;SDS011;36525;49.398;7.614;2023-01-29T16:50:50;14.23;;;8.98;;
50569;SDS011;36525;49.398;7.614;2023-01-29T16:53:38;16.75;;;7.72;;
50569;SDS011;36525;49.398;7.614;2023-01-29T16:56:06;15.00;;;8.35;;
50569;SDS011;36525;49.398;7.614;2023-01-29T16:58:34;14.88;;;7.70;;
50569;SDS011;36525;49.398;7.614;2023-01-29T17:01:09;16.45;;;8.63;;
50569;SDS011;36525;49.398;7.614;2023-01-29T17:03:37;17.85;;;8.23;;
50569;SDS011;36525;49.398;7.614;2023-01-29T17:09:06;16.92;;;9.27;;
50569;SDS011;36525;49.398;7.614;2023-01-29T17:11:43;14.73;;;7.70;;
50569;SDS011;36525;49.398;7.614;2023-01-29T17:14:16;18.08;;;9.93;;
50569;SDS011;36525;49.398;7.614;2023-01-29T17:16:49;19.35;;;9.85;;
50569;SDS011;36525;49.398;7.614;2023-01-29T17:19:29;18.05;;;10.68;;
50569;SDS011;36525;49.398;7.614;2023-01-29T17:21:57;17.63;;;10.88;;
50569;SDS011;36525;49.398;7.614;2023-01-29T17:24:25;21.60;;;12.13;;
50569;SDS011;36525;49.398;7.614;2023-01-29T17:26:52;15.90;;;8.55;;
50569;SDS011;36525;49.398;7.614;2023-01-29T17:29:20;21.63;;;11.85;;
50569;SDS011;36525;49.398;7.614;2023-01-29T17:31:53;17.40;;;9.25;;
50569;SDS011;36525;49.398;7.614;2023-01-29T17:34:22;19.70;;;10.40;;
50569;SDS011;36525;49.398;7.614;2023-01-29T17:36:49;15.82;;;9.00;;
50569;SDS011;36525;49.398;7.614;2023-01-29T17:39:18;17.85;;;10.57;;
50569;SDS011;36525;49.398;7.614;2023-01-29T17:41:48;19.25;;;11.48;;
50569;SDS011;36525;49.398;7.614;2023-01-29T17:44:18;21.20;;;12.07;;
50569;SDS011;36525;49.398;7.614;2023-01-29T17:46:46;20.33;;;12.95;;
50569;SDS011;36525;49.398;7.614;2023-01-29T17:49:17;23.33;;;13.38;;
50569;SDS011;36525;49.398;7.614;2023-01-29T17:51:51;20.02;;;11.45;;
50569;SDS011;36525;49.398;7.614;2023-01-29T17:54:20;19.02;;;11.35;;